sensor_id;sensor_type;location;lat;lon;timestamp;temperature;humidity
16655;DHT22;8441;51.344;7.022;2023-10-19T00:00:04;11.80;99.90
16655;DHT22;8441;51.344;7.022;2023-10-19T00:02:57;11.90;99.90
16655;DHT22;8441;51.344;7.022;2023-10-19T00:05:25;11.90;99.90
16655;DHT22;8441;51.344;7.022;2023-10-19T00:07:52;11.90;99.90
16655;DHT22;8441;51.344;7.022;2023-10-19T00:10:23;11.90;99.90
16655;DHT22;8441;51.344;7.022;2023-10-19T00:12:52;11.90;99.90
16655;DHT22;8441;51.344;7.022;2023-10-19T00:15:26;11.90;99.90
16655;DHT22;8441;51.344;7.022;2023-10-19T00:17:58;11.90;99.90
16655;DHT22;8441;51.344;7.022;2023-10-19T00:20:32;11.90;99.90
16655;DHT22;8441;51.344;7.022;2023-10-19T00:23:15;12.00;99.90
16655;DHT22;8441;51.344;7.022;2023-10-19T00:25:44;12.00;99.90
16655;DHT22;8441;51.344;7.022;2023-10-19T00:28:17;12.00;99.90
16655;DHT22;8441;51.344;7.022;2023-10-19T00:30:43;12.00;99.90
16655;DHT22;8441;51.344;7.022;2023-10-19T00:33:12;12.00;99.90
16655;DHT22;8441;51.344;7.022;2023-10-19T00:35:44;12.00;99.90
16655;DHT22;8441;51.344;7.022;2023-10-19T00:38:17;12.00;99.90
16655;DHT22;8441;51.344;7.022;2023-10-19T00:40:53;12.00;99.90
16655;DHT22;8441;51.344;7.022;2023-10-19T00:43:28;12.10;99.90
16655;DHT22;8441;51.344;7.022;2023-10-19T00:45:59;12.10;99.90
16655;DHT22;8441;51.344;7.022;2023-10-19T00:48:31;12.10;99.90
16655;DHT22;8441;51.344;7.022;2023-10-19T00:50:58;12.10;99.90
16655;DHT22;8441;51.344;7.022;2023-10-19T00:53:37;12.10;99.90
16655;DHT22;8441;51.344;7.022;2023-10-19T00:56:07;12.10;99.90
16655;DHT22;8441;51.344;7.022;2023-10-19T00:58:37;12.10;99.90
16655;DHT22;8441;51.344;7.022;2023-10-19T01:01:07;12.20;99.90
16655;DHT22;8441;51.344;7.022;2023-10-19T01:03:36;12.10;99.90
16655;DHT22;8441;51.344;7.022;2023-10-19T01:06:04;12.20;99.90
16655;DHT22;8441;51.344;7.022;2023-10-19T01:08:39;12.20;99.90
16655;DHT22;8441;51.344;7.022;2023-10-19T01:11:11;12.30;99.90
16655;DHT22;8441;51.344;7.022;2023-10-19T01:13:41;12.30;99.90
16655;DHT22;8441;51.344;7.022;2023-10-19T01:16:14;12.30;99.90
16655;DHT22;8441;51.344;7.022;2023-10-19T01:18:56;12.30;99.90
16655;DHT22;8441;51.344;7.022;2023-10-19T01:21:24;12.30;99.90
16655;DHT22;8441;51.344;7.022;2023-10-19T01:24:06;12.30;99.90
16655;DHT22;8441;51.344;7.022;2023-10-19T01:26:33;12.30;99.90
16655;DHT22;8441;51.344;7.022;2023-10-19T01:29:03;12.40;99.90
16655;DHT22;8441;51.344;7.022;2023-10-19T01:31:39;12.40;99.90
16655;DHT22;8441;51.344;7.022;2023-10-19T01:34:17;12.40;99.90
16655;DHT22;8441;51.344;7.022;2023-10-19T01:36:45;12.40;99.90
16655;DHT22;8441;51.344;7.022;2023-10-19T01:39:17;12.30;99.90
16655;DHT22;8441;51.344;7.022;2023-10-19T01:41:45;12.30;99.90
16655;DHT22;8441;51.344;7.022;2023-10-19T01:44:16;12.30;99.90
16655;DHT22;8441;51.344;7.022;2023-10-19T01:46:42;12.40;99.90
16655;DHT22;8441;51.344;7.022;2023-10-19T01:49:11;12.40;99.90
16655;DHT22;8441;51.344;7.022;2023-10-19T01:51:38;12.50;99.90
16655;DHT22;8441;51.344;7.022;2023-10-19T01:54:05;12.50;99.90
16655;DHT22;8441;51.344;7.022;2023-10-19T01:56:33;12.60;99.90
16655;DHT22;8441;51.344;7.022;2023-10-19T01:59:02;12.60;99.90
16655;DHT22;8441;51.344;7.022;2023-10-19T02:01:30;12.70;99.90
16655;DHT22;8441;51.344;7.022;2023-10-19T02:04:00;12.70;99.90
16655;DHT22;8441;51.344;7.022;2023-10-19T02:06:27;12.70;99.90
16655;DHT22;8441;51.344;7.022;2023-10-19T02:09:03;12.70;99.90
16655;DHT22;8441;51.344;7.022;2023-10-19T02:11:36;12.80;99.90
16655;DHT22;8441;51.344;7.022;2023-10-19T02:14:08;12.80;99.90
16655;DHT22;8441;51.344;7.022;2023-10-19T02:16:40;12.80;99.90
16655;DHT22;8441;51.344;7.022;2023-10-19T02:19:07;12.80;99.90
16655;DHT22;8441;51.344;7.022;2023-10-19T02:21:34;12.80;99.90
16655;DHT22;8441;51.344;7.022;2023-10-19T02:24:06;12.80;99.90
16655;DHT22;8441;51.344;7.022;2023-10-19T02:26:35;12.80;99.90
16655;DHT22;8441;51.344;7.022;2023-10-19T02:29:03;12.90;99.90
16655;DHT22;8441;51.344;7.022;2023-10-19T02:31:33;12.80;99.90
16655;DHT22;8441;51.344;7.022;2023-10-19T02:33:59;12.80;99.90
16655;DHT22;8441;51.344;7.022;2023-10-19T02:36:27;12.90;99.90
16655;DHT22;8441;51.344;7.022;2023-10-19T02:38:55;12.90;99.90
16655;DHT22;8441;51.344;7.022;2023-10-19T02:41:25;13.00;99.90
16655;DHT22;8441;51.344;7.022;2023-10-19T02:43:54;12.90;99.90
16655;DHT22;8441;51.344;7.022;2023-10-19T02:46:31;13.00;99.90
16655;DHT22;8441;51.344;7.022;2023-10-19T02:49:00;13.10;99.90
16655;DHT22;8441;51.344;7.022;2023-10-19T02:51:29;13.10;99.90
16655;DHT22;8441;51.344;7.022;2023-10-19T02:53:56;13.20;99.90
16655;DHT22;8441;51.344;7.022;2023-10-19T02:56:25;13.20;99.90
16655;DHT22;8441;51.344;7.022;2023-10-19T02:58:54;13.20;99.90
16655;DHT22;8441;51.344;7.022;2023-10-19T03:01:24;13.30;99.90
16655;DHT22;8441;51.344;7.022;2023-10-19T03:03:55;13.30;99.90
16655;DHT22;8441;51.344;7.022;2023-10-19T03:06:26;13.30;99.90
16655;DHT22;8441;51.344;7.022;2023-10-19T03:08:57;13.30;99.90
16655;DHT22;8441;51.344;7.022;2023-10-19T03:11:23;13.40;99.90
16655;DHT22;8441;51.344;7.022;2023-10-19T03:13:51;13.40;99.90
16655;DHT22;8441;51.344;7.022;2023-10-19T03:16:19;13.40;99.90
16655;DHT22;8441;51.344;7.022;2023-10-19T03:18:48;13.40;99.90
16655;DHT22;8441;51.344;7.022;2023-10-19T03:21:14;13.40;99.90
16655;DHT22;8441;51.344;7.022;2023-10-19T03:23:42;13.40;99.90
16655;DHT22;8441;51.344;7.022;2023-10-19T03:26:08;13.40;99.90
16655;DHT22;8441;51.344;7.022;2023-10-19T03:28:53;13.40;99.90
16655;DHT22;8441;51.344;7.022;2023-10-19T03:31:23;13.40;99.90
16655;DHT22;8441;51.344;7.022;2023-10-19T03:33:51;13.40;99.90
16655;DHT22;8441;51.344;7.022;2023-10-19T03:36:22;13.40;99.90
16655;DHT22;8441;51.344;7.022;2023-10-19T03:38:50;13.50;99.90
16655;DHT22;8441;51.344;7.022;2023-10-19T03:41:19;13.40;99.90
16655;DHT22;8441;51.344;7.022;2023-10-19T03:43:55;13.40;99.90
16655;DHT22;8441;51.344;7.022;2023-10-19T03:46:25;13.40;99.90
16655;DHT22;8441;51.344;7.022;2023-10-19T03:48:57;13.40;99.90
16655;DHT22;8441;51.344;7.022;2023-10-19T03:51:30;13.40;99.90
16655;DHT22;8441;51.344;7.022;2023-10-19T03:54:05;13.40;99.90
16655;DHT22;8441;51.344;7.022;2023-10-19T03:56:48;13.40;99.90
16655;DHT22;8441;51.344;7.022;2023-10-19T03:59:16;13.40;99.90
16655;DHT22;8441;51.344;7.022;2023-10-19T04:01:45;13.50;99.90
16655;DHT22;8441;51.344;7.022;2023-10-19T04:04:12;13.40;99.90
16655;DHT22;8441;51.344;7.022;2023-10-19T04:06:42;13.50;99.90
16655;DHT22;8441;51.344;7.022;2023-10-19T04:09:13;13.50;99.90
16655;DHT22;8441;51.344;7.022;2023-10-19T04:11:42;13.40;99.90
16655;DHT22;8441;51.344;7.022;2023-10-19T04:14:15;13.50;99.90
16655;DHT22;8441;51.344;7.022;2023-10-19T04:16:44;13.50;99.90
16655;DHT22;8441;51.344;7.022;2023-10-19T04:19:14;13.50;99.90
16655;DHT22;8441;51.344;7.022;2023-10-19T04:21:42;13.40;99.90
16655;DHT22;8441;51.344;7.022;2023-10-19T04:24:13;13.40;99.90
16655;DHT22;8441;51.344;7.022;2023-10-19T04:26:40;13.40;99.90
16655;DHT22;8441;51.344;7.022;2023-10-19T04:29:08;13.50;99.90
16655;DHT22;8441;51.344;7.022;2023-10-19T04:31:37;13.50;99.90
16655;DHT22;8441;51.344;7.022;2023-10-19T04:34:16;13.50;99.90
16655;DHT22;8441;51.344;7.022;2023-10-19T04:36:46;13.40;99.90
16655;DHT22;8441;51.344;7.022;2023-10-19T04:39:14;13.50;99.90
16655;DHT22;8441;51.344;7.022;2023-10-19T04:41:45;13.50;99.90
16655;DHT22;8441;51.344;7.022;2023-10-19T04:44:15;13.50;99.90
16655;DHT22;8441;51.344;7.022;2023-10-19T04:46:42;13.50;99.90
16655;DHT22;8441;51.344;7.022;2023-10-19T04:49:10;13.50;99.90
16655;DHT22;8441;51.344;7.022;2023-10-19T04:51:38;13.50;99.90
16655;DHT22;8441;51.344;7.022;2023-10-19T04:54:06;13.50;99.90
16655;DHT22;8441;51.344;7.022;2023-10-19T04:56:34;13.50;99.90
16655;DHT22;8441;51.344;7.022;2023-10-19T04:59:03;13.60;99.90
16655;DHT22;8441;51.344;7.022;2023-10-19T05:01:30;13.50;99.90
16655;DHT22;8441;51.344;7.022;2023-10-19T05:03:59;13.60;99.90
16655;DHT22;8441;51.344;7.022;2023-10-19T05:06:26;13.60;99.90
16655;DHT22;8441;51.344;7.022;2023-10-19T05:08:55;13.70;99.90
16655;DHT22;8441;51.344;7.022;2023-10-19T05:11:23;13.60;99.90
16655;DHT22;8441;51.344;7.022;2023-10-19T05:13:50;13.50;99.90
16655;DHT22;8441;51.344;7.022;2023-10-19T05:16:17;13.50;99.90
16655;DHT22;8441;51.344;7.022;2023-10-19T05:18:45;13.60;99.90
16655;DHT22;8441;51.344;7.022;2023-10-19T05:21:12;13.60;99.90
16655;DHT22;8441;51.344;7.022;2023-10-19T05:23:39;13.50;99.90
16655;DHT22;8441;51.344;7.022;2023-10-19T05:26:08;13.60;99.90
16655;DHT22;8441;51.344;7.022;2023-10-19T05:28:35;13.60;99.90
16655;DHT22;8441;51.344;7.022;2023-10-19T05:31:03;13.60;99.90
16655;DHT22;8441;51.344;7.022;2023-10-19T05:33:30;13.60;99.90
16655;DHT22;8441;51.344;7.022;2023-10-19T05:35:58;13.60;99.90
16655;DHT22;8441;51.344;7.022;2023-10-19T05:38:27;13.60;99.90
16655;DHT22;8441;51.344;7.022;2023-10-19T05:40:56;13.60;99.90
16655;DHT22;8441;51.344;7.022;2023-10-19T05:43:26;13.50;99.90
16655;DHT22;8441;51.344;7.022;2023-10-19T05:45:53;13.60;99.90
16655;DHT22;8441;51.344;7.022;2023-10-19T05:48:22;13.60;99.90
16655;DHT22;8441;51.344;7.022;2023-10-19T05:50:50;13.60;99.90
16655;DHT22;8441;51.344;7.022;2023-10-19T05:53:17;13.50;99.90
16655;DHT22;8441;51.344;7.022;2023-10-19T05:55:44;13.50;99.90
16655;DHT22;8441;51.344;7.022;2023-10-19T05:58:12;13.50;99.90
16655;DHT22;8441;51.344;7.022;2023-10-19T06:00:41;13.40;99.90
16655;DHT22;8441;51.344;7.022;2023-10-19T06:03:08;13.50;99.90
16655;DHT22;8441;51.344;7.022;2023-10-19T06:05:36;13.40;99.90
16655;DHT22;8441;51.344;7.022;2023-10-19T06:08:04;13.40;99.90
16655;DHT22;8441;51.344;7.022;2023-10-19T06:10:31;13.40;99.90
16655;DHT22;8441;51.344;7.022;2023-10-19T06:12:58;13.40;99.90
16655;DHT22;8441;51.344;7.022;2023-10-19T06:15:25;13.30;99.90
16655;DHT22;8441;51.344;7.022;2023-10-19T06:17:56;13.40;99.90
16655;DHT22;8441;51.344;7.022;2023-10-19T06:20:23;13.40;99.90
16655;DHT22;8441;51.344;7.022;2023-10-19T06:22:52;13.40;99.90
16655;DHT22;8441;51.344;7.022;2023-10-19T06:25:23;13.40;99.90
16655;DHT22;8441;51.344;7.022;2023-10-19T06:27:51;13.40;99.90
16655;DHT22;8441;51.344;7.022;2023-10-19T06:30:19;13.40;99.90
16655;DHT22;8441;51.344;7.022;2023-10-19T06:32:50;13.50;99.90
16655;DHT22;8441;51.344;7.022;2023-10-19T06:35:19;13.50;99.90
16655;DHT22;8441;51.344;7.022;2023-10-19T06:37:47;13.50;99.90
16655;DHT22;8441;51.344;7.022;2023-10-19T06:40:16;13.60;99.90
16655;DHT22;8441;51.344;7.022;2023-10-19T06:42:44;13.60;99.90
16655;DHT22;8441;51.344;7.022;2023-10-19T06:45:12;13.60;99.90
16655;DHT22;8441;51.344;7.022;2023-10-19T06:47:41;13.70;99.90
16655;DHT22;8441;51.344;7.022;2023-10-19T06:50:11;13.60;99.90
16655;DHT22;8441;51.344;7.022;2023-10-19T06:52:40;13.70;99.90
16655;DHT22;8441;51.344;7.022;2023-10-19T06:55:09;13.60;99.90
16655;DHT22;8441;51.344;7.022;2023-10-19T06:57:40;13.70;99.90
16655;DHT22;8441;51.344;7.022;2023-10-19T07:00:10;13.70;99.90
16655;DHT22;8441;51.344;7.022;2023-10-19T07:02:41;13.70;99.90
16655;DHT22;8441;51.344;7.022;2023-10-19T07:05:09;13.70;99.90
16655;DHT22;8441;51.344;7.022;2023-10-19T07:07:41;13.70;99.90
16655;DHT22;8441;51.344;7.022;2023-10-19T07:10:09;13.70;99.90
16655;DHT22;8441;51.344;7.022;2023-10-19T07:12:38;13.80;99.90
16655;DHT22;8441;51.344;7.022;2023-10-19T07:15:07;13.90;99.90
16655;DHT22;8441;51.344;7.022;2023-10-19T07:17:40;13.90;99.90
16655;DHT22;8441;51.344;7.022;2023-10-19T07:20:08;14.00;99.90
16655;DHT22;8441;51.344;7.022;2023-10-19T07:22:49;14.00;99.90
16655;DHT22;8441;51.344;7.022;2023-10-19T07:25:16;14.00;99.90
16655;DHT22;8441;51.344;7.022;2023-10-19T07:27:47;14.00;99.90
16655;DHT22;8441;51.344;7.022;2023-10-19T07:30:14;14.10;99.90
16655;DHT22;8441;51.344;7.022;2023-10-19T07:32:47;14.10;99.90
16655;DHT22;8441;51.344;7.022;2023-10-19T07:35:18;14.10;99.90
16655;DHT22;8441;51.344;7.022;2023-10-19T07:37:45;14.10;99.90
16655;DHT22;8441;51.344;7.022;2023-10-19T07:40:15;14.10;99.90
16655;DHT22;8441;51.344;7.022;2023-10-19T07:42:43;14.00;99.90
16655;DHT22;8441;51.344;7.022;2023-10-19T07:45:11;14.10;99.90
16655;DHT22;8441;51.344;7.022;2023-10-19T07:47:38;14.10;99.90
16655;DHT22;8441;51.344;7.022;2023-10-19T07:50:08;14.20;99.90
16655;DHT22;8441;51.344;7.022;2023-10-19T07:52:38;14.20;99.90
16655;DHT22;8441;51.344;7.022;2023-10-19T07:55:06;14.30;99.90
16655;DHT22;8441;51.344;7.022;2023-10-19T07:57:35;14.30;99.90
16655;DHT22;8441;51.344;7.022;2023-10-19T08:00:03;14.40;99.90
16655;DHT22;8441;51.344;7.022;2023-10-19T08:02:31;14.40;99.90
16655;DHT22;8441;51.344;7.022;2023-10-19T08:05:00;14.40;99.90
16655;DHT22;8441;51.344;7.022;2023-10-19T08:07:28;14.50;99.90
16655;DHT22;8441;51.344;7.022;2023-10-19T08:09:56;14.60;99.90
16655;DHT22;8441;51.344;7.022;2023-10-19T08:12:24;14.60;99.90
16655;DHT22;8441;51.344;7.022;2023-10-19T08:14:53;14.70;99.90
16655;DHT22;8441;51.344;7.022;2023-10-19T08:17:21;14.70;99.90
16655;DHT22;8441;51.344;7.022;2023-10-19T08:19:49;14.80;99.90
16655;DHT22;8441;51.344;7.022;2023-10-19T08:22:16;14.90;99.90
16655;DHT22;8441;51.344;7.022;2023-10-19T08:24:44;14.90;99.90
16655;DHT22;8441;51.344;7.022;2023-10-19T08:27:11;14.90;99.90
16655;DHT22;8441;51.344;7.022;2023-10-19T08:29:39;15.00;99.90
16655;DHT22;8441;51.344;7.022;2023-10-19T08:32:07;15.10;99.90
16655;DHT22;8441;51.344;7.022;2023-10-19T08:34:35;15.30;99.90
16655;DHT22;8441;51.344;7.022;2023-10-19T08:37:03;15.40;99.90
16655;DHT22;8441;51.344;7.022;2023-10-19T08:39:32;15.60;99.90
16655;DHT22;8441;51.344;7.022;2023-10-19T08:42:02;15.90;99.90
16655;DHT22;8441;51.344;7.022;2023-10-19T08:44:30;16.00;99.90
16655;DHT22;8441;51.344;7.022;2023-10-19T08:46:58;16.20;99.90
16655;DHT22;8441;51.344;7.022;2023-10-19T08:49:27;16.40;99.90
16655;DHT22;8441;51.344;7.022;2023-10-19T08:51:55;16.60;99.90
16655;DHT22;8441;51.344;7.022;2023-10-19T08:54:25;16.80;99.90
16655;DHT22;8441;51.344;7.022;2023-10-19T08:56:53;16.90;99.90
16655;DHT22;8441;51.344;7.022;2023-10-19T08:59:21;17.10;99.90
16655;DHT22;8441;51.344;7.022;2023-10-19T09:01:49;17.10;99.90
16655;DHT22;8441;51.344;7.022;2023-10-19T09:04:16;17.10;99.90
16655;DHT22;8441;51.344;7.022;2023-10-19T09:06:45;17.10;99.90
16655;DHT22;8441;51.344;7.022;2023-10-19T09:09:14;17.00;99.90
16655;DHT22;8441;51.344;7.022;2023-10-19T09:11:45;17.00;99.90
16655;DHT22;8441;51.344;7.022;2023-10-19T09:14:13;16.90;99.90
16655;DHT22;8441;51.344;7.022;2023-10-19T09:16:54;16.80;99.90
16655;DHT22;8441;51.344;7.022;2023-10-19T09:19:38;16.60;99.90
16655;DHT22;8441;51.344;7.022;2023-10-19T09:22:08;16.50;99.90
16655;DHT22;8441;51.344;7.022;2023-10-19T09:24:43;16.60;99.90
16655;DHT22;8441;51.344;7.022;2023-10-19T09:27:11;16.60;99.90
16655;DHT22;8441;51.344;7.022;2023-10-19T09:29:39;16.80;99.90
16655;DHT22;8441;51.344;7.022;2023-10-19T09:32:07;17.00;99.90
16655;DHT22;8441;51.344;7.022;2023-10-19T09:34:35;17.00;99.90
16655;DHT22;8441;51.344;7.022;2023-10-19T09:37:03;17.10;99.90
16655;DHT22;8441;51.344;7.022;2023-10-19T09:39:33;17.20;99.90
16655;DHT22;8441;51.344;7.022;2023-10-19T09:42:02;17.40;99.90
16655;DHT22;8441;51.344;7.022;2023-10-19T09:44:39;17.40;99.90
16655;DHT22;8441;51.344;7.022;2023-10-19T09:47:11;17.40;99.90
16655;DHT22;8441;51.344;7.022;2023-10-19T09:49:41;17.50;99.90
16655;DHT22;8441;51.344;7.022;2023-10-19T09:52:10;17.60;99.90
16655;DHT22;8441;51.344;7.022;2023-10-19T09:54:50;17.70;99.90
16655;DHT22;8441;51.344;7.022;2023-10-19T09:57:25;17.70;99.90
16655;DHT22;8441;51.344;7.022;2023-10-19T10:00:00;17.50;99.90
16655;DHT22;8441;51.344;7.022;2023-10-19T10:02:34;17.20;99.90
16655;DHT22;8441;51.344;7.022;2023-10-19T10:05:03;17.00;99.90
16655;DHT22;8441;51.344;7.022;2023-10-19T10:07:30;16.90;99.90
16655;DHT22;8441;51.344;7.022;2023-10-19T10:09:59;16.80;99.90
16655;DHT22;8441;51.344;7.022;2023-10-19T10:12:29;16.90;99.90
16655;DHT22;8441;51.344;7.022;2023-10-19T10:15:01;17.00;99.90
16655;DHT22;8441;51.344;7.022;2023-10-19T10:17:30;17.20;99.90
16655;DHT22;8441;51.344;7.022;2023-10-19T10:20:30;17.30;99.90
16655;DHT22;8441;51.344;7.022;2023-10-19T10:23:19;17.30;99.90
16655;DHT22;8441;51.344;7.022;2023-10-19T10:25:51;17.30;99.90
16655;DHT22;8441;51.344;7.022;2023-10-19T10:28:20;17.30;99.90
16655;DHT22;8441;51.344;7.022;2023-10-19T10:31:15;17.30;99.90
16655;DHT22;8441;51.344;7.022;2023-10-19T10:33:48;17.30;99.90
16655;DHT22;8441;51.344;7.022;2023-10-19T10:36:17;17.40;99.90
16655;DHT22;8441;51.344;7.022;2023-10-19T10:38:46;17.40;99.90
16655;DHT22;8441;51.344;7.022;2023-10-19T10:41:21;17.50;99.90
16655;DHT22;8441;51.344;7.022;2023-10-19T10:43:55;17.40;99.90
16655;DHT22;8441;51.344;7.022;2023-10-19T10:46:23;17.50;99.90
16655;DHT22;8441;51.344;7.022;2023-10-19T10:48:51;17.60;99.90
16655;DHT22;8441;51.344;7.022;2023-10-19T10:51:19;17.70;99.90
16655;DHT22;8441;51.344;7.022;2023-10-19T10:53:51;17.80;99.90
16655;DHT22;8441;51.344;7.022;2023-10-19T10:56:21;17.60;99.90
16655;DHT22;8441;51.344;7.022;2023-10-19T10:58:49;17.60;99.90
16655;DHT22;8441;51.344;7.022;2023-10-19T11:01:28;17.70;99.90
16655;DHT22;8441;51.344;7.022;2023-10-19T11:04:05;17.70;99.90
16655;DHT22;8441;51.344;7.022;2023-10-19T11:06:33;17.80;99.90
16655;DHT22;8441;51.344;7.022;2023-10-19T11:09:12;17.90;99.90
16655;DHT22;8441;51.344;7.022;2023-10-19T11:11:45;18.10;99.90
16655;DHT22;8441;51.344;7.022;2023-10-19T11:14:12;18.20;99.90
16655;DHT22;8441;51.344;7.022;2023-10-19T11:16:40;18.40;99.90
16655;DHT22;8441;51.344;7.022;2023-10-19T11:19:09;18.50;99.90
16655;DHT22;8441;51.344;7.022;2023-10-19T11:21:37;18.60;99.90
16655;DHT22;8441;51.344;7.022;2023-10-19T11:24:05;18.40;99.90
16655;DHT22;8441;51.344;7.022;2023-10-19T11:26:39;18.40;99.90
16655;DHT22;8441;51.344;7.022;2023-10-19T11:29:09;18.40;99.90
16655;DHT22;8441;51.344;7.022;2023-10-19T11:31:36;18.50;99.90
16655;DHT22;8441;51.344;7.022;2023-10-19T11:34:05;18.60;99.90
16655;DHT22;8441;51.344;7.022;2023-10-19T11:36:34;18.40;99.90
16655;DHT22;8441;51.344;7.022;2023-10-19T11:39:02;18.40;99.90
16655;DHT22;8441;51.344;7.022;2023-10-19T11:41:34;18.30;99.90
16655;DHT22;8441;51.344;7.022;2023-10-19T11:44:01;18.20;99.90
16655;DHT22;8441;51.344;7.022;2023-10-19T11:46:29;18.10;99.90
16655;DHT22;8441;51.344;7.022;2023-10-19T11:48:57;18.00;99.90
16655;DHT22;8441;51.344;7.022;2023-10-19T11:51:24;18.10;99.90
16655;DHT22;8441;51.344;7.022;2023-10-19T11:53:51;18.00;99.90
16655;DHT22;8441;51.344;7.022;2023-10-19T11:56:19;18.00;99.90
16655;DHT22;8441;51.344;7.022;2023-10-19T11:58:47;18.00;99.90
16655;DHT22;8441;51.344;7.022;2023-10-19T12:01:14;17.90;99.90
16655;DHT22;8441;51.344;7.022;2023-10-19T12:03:44;18.10;99.90
16655;DHT22;8441;51.344;7.022;2023-10-19T12:06:13;18.20;99.90
16655;DHT22;8441;51.344;7.022;2023-10-19T12:08:45;18.40;99.90
16655;DHT22;8441;51.344;7.022;2023-10-19T12:11:12;18.50;99.90
16655;DHT22;8441;51.344;7.022;2023-10-19T12:13:42;18.50;99.90
16655;DHT22;8441;51.344;7.022;2023-10-19T12:16:10;18.50;99.90
16655;DHT22;8441;51.344;7.022;2023-10-19T12:18:38;18.50;99.90
16655;DHT22;8441;51.344;7.022;2023-10-19T12:21:07;18.60;99.90
16655;DHT22;8441;51.344;7.022;2023-10-19T12:23:39;18.40;99.90
16655;DHT22;8441;51.344;7.022;2023-10-19T12:26:06;18.30;99.90
16655;DHT22;8441;51.344;7.022;2023-10-19T12:28:37;18.40;99.90
16655;DHT22;8441;51.344;7.022;2023-10-19T12:31:05;18.60;99.90
16655;DHT22;8441;51.344;7.022;2023-10-19T12:33:34;18.60;99.90
16655;DHT22;8441;51.344;7.022;2023-10-19T12:36:02;18.70;99.90
16655;DHT22;8441;51.344;7.022;2023-10-19T12:38:50;18.70;99.90
16655;DHT22;8441;51.344;7.022;2023-10-19T12:41:18;18.60;99.90
16655;DHT22;8441;51.344;7.022;2023-10-19T12:43:45;18.40;99.90
16655;DHT22;8441;51.344;7.022;2023-10-19T12:46:13;18.40;99.90
16655;DHT22;8441;51.344;7.022;2023-10-19T12:48:42;18.40;99.90
16655;DHT22;8441;51.344;7.022;2023-10-19T12:51:09;18.40;99.90
16655;DHT22;8441;51.344;7.022;2023-10-19T12:53:37;18.50;99.90
16655;DHT22;8441;51.344;7.022;2023-10-19T12:56:06;18.50;99.90
16655;DHT22;8441;51.344;7.022;2023-10-19T12:58:37;18.50;99.90
16655;DHT22;8441;51.344;7.022;2023-10-19T13:01:05;18.30;99.90
16655;DHT22;8441;51.344;7.022;2023-10-19T13:03:32;18.30;99.90
16655;DHT22;8441;51.344;7.022;2023-10-19T13:06:02;18.10;99.90
16655;DHT22;8441;51.344;7.022;2023-10-19T13:08:33;18.00;99.90
16655;DHT22;8441;51.344;7.022;2023-10-19T13:11:00;17.90;99.90
16655;DHT22;8441;51.344;7.022;2023-10-19T13:13:29;17.90;99.90
16655;DHT22;8441;51.344;7.022;2023-10-19T13:15:56;17.90;99.90
16655;DHT22;8441;51.344;7.022;2023-10-19T13:18:23;17.80;99.90
16655;DHT22;8441;51.344;7.022;2023-10-19T13:20:53;17.70;99.90
16655;DHT22;8441;51.344;7.022;2023-10-19T13:23:21;17.70;99.90
16655;DHT22;8441;51.344;7.022;2023-10-19T13:25:48;17.60;99.90
16655;DHT22;8441;51.344;7.022;2023-10-19T13:28:21;17.60;99.90
16655;DHT22;8441;51.344;7.022;2023-10-19T13:30:50;17.60;99.90
16655;DHT22;8441;51.344;7.022;2023-10-19T13:33:19;17.50;99.90
16655;DHT22;8441;51.344;7.022;2023-10-19T13:35:48;17.50;99.90
16655;DHT22;8441;51.344;7.022;2023-10-19T13:38:16;17.40;99.90
16655;DHT22;8441;51.344;7.022;2023-10-19T13:40:45;17.30;99.90
16655;DHT22;8441;51.344;7.022;2023-10-19T13:43:15;17.30;99.90
16655;DHT22;8441;51.344;7.022;2023-10-19T13:45:45;17.40;99.90
16655;DHT22;8441;51.344;7.022;2023-10-19T13:48:14;17.30;99.90
16655;DHT22;8441;51.344;7.022;2023-10-19T13:50:44;17.30;99.90
16655;DHT22;8441;51.344;7.022;2023-10-19T13:53:11;17.40;99.90
16655;DHT22;8441;51.344;7.022;2023-10-19T13:55:39;17.20;99.90
16655;DHT22;8441;51.344;7.022;2023-10-19T13:58:07;17.20;99.90
16655;DHT22;8441;51.344;7.022;2023-10-19T14:00:35;17.10;99.90
16655;DHT22;8441;51.344;7.022;2023-10-19T14:03:06;17.20;99.90
16655;DHT22;8441;51.344;7.022;2023-10-19T14:05:40;17.30;99.90
16655;DHT22;8441;51.344;7.022;2023-10-19T14:08:09;17.30;99.90
16655;DHT22;8441;51.344;7.022;2023-10-19T14:10:36;17.30;99.90
16655;DHT22;8441;51.344;7.022;2023-10-19T14:13:07;17.40;99.90
16655;DHT22;8441;51.344;7.022;2023-10-19T14:15:36;17.40;99.90
16655;DHT22;8441;51.344;7.022;2023-10-19T14:18:04;17.50;99.90
16655;DHT22;8441;51.344;7.022;2023-10-19T14:20:31;17.40;99.90
16655;DHT22;8441;51.344;7.022;2023-10-19T14:23:02;17.30;99.90
16655;DHT22;8441;51.344;7.022;2023-10-19T14:25:30;17.20;99.90
16655;DHT22;8441;51.344;7.022;2023-10-19T14:27:58;17.20;99.90
16655;DHT22;8441;51.344;7.022;2023-10-19T14:30:27;17.10;99.90
16655;DHT22;8441;51.344;7.022;2023-10-19T14:32:55;17.10;99.90
16655;DHT22;8441;51.344;7.022;2023-10-19T14:35:24;17.00;99.90
16655;DHT22;8441;51.344;7.022;2023-10-19T14:37:53;17.10;99.90
16655;DHT22;8441;51.344;7.022;2023-10-19T14:40:24;17.10;99.90
16655;DHT22;8441;51.344;7.022;2023-10-19T14:42:52;17.10;99.90
16655;DHT22;8441;51.344;7.022;2023-10-19T14:45:23;17.00;99.90
16655;DHT22;8441;51.344;7.022;2023-10-19T14:47:52;17.10;99.90
16655;DHT22;8441;51.344;7.022;2023-10-19T14:50:21;16.90;99.90
16655;DHT22;8441;51.344;7.022;2023-10-19T14:52:49;17.00;99.90
16655;DHT22;8441;51.344;7.022;2023-10-19T14:55:17;17.00;99.90
16655;DHT22;8441;51.344;7.022;2023-10-19T14:57:50;17.00;99.90
16655;DHT22;8441;51.344;7.022;2023-10-19T15:00:20;17.00;99.90
16655;DHT22;8441;51.344;7.022;2023-10-19T15:02:59;16.90;99.90
16655;DHT22;8441;51.344;7.022;2023-10-19T15:05:28;16.90;99.90
16655;DHT22;8441;51.344;7.022;2023-10-19T15:07:55;16.90;99.90
16655;DHT22;8441;51.344;7.022;2023-10-19T15:10:24;16.80;99.90
16655;DHT22;8441;51.344;7.022;2023-10-19T15:12:55;16.60;99.90
16655;DHT22;8441;51.344;7.022;2023-10-19T15:15:22;16.60;99.90
16655;DHT22;8441;51.344;7.022;2023-10-19T15:17:49;16.50;99.90
16655;DHT22;8441;51.344;7.022;2023-10-19T15:20:20;16.50;99.90
16655;DHT22;8441;51.344;7.022;2023-10-19T15:22:48;16.40;99.90
16655;DHT22;8441;51.344;7.022;2023-10-19T15:25:15;16.30;99.90
16655;DHT22;8441;51.344;7.022;2023-10-19T15:27:46;16.30;99.90
16655;DHT22;8441;51.344;7.022;2023-10-19T15:30:15;16.20;99.90
16655;DHT22;8441;51.344;7.022;2023-10-19T15:32:47;16.20;99.90
16655;DHT22;8441;51.344;7.022;2023-10-19T15:35:16;16.20;99.90
16655;DHT22;8441;51.344;7.022;2023-10-19T15:37:47;16.20;99.90
16655;DHT22;8441;51.344;7.022;2023-10-19T15:40:15;16.20;99.90
16655;DHT22;8441;51.344;7.022;2023-10-19T15:42:43;16.30;99.90
16655;DHT22;8441;51.344;7.022;2023-10-19T15:45:16;16.40;99.90
16655;DHT22;8441;51.344;7.022;2023-10-19T15:47:45;16.50;99.90
16655;DHT22;8441;51.344;7.022;2023-10-19T15:50:14;16.50;99.90
16655;DHT22;8441;51.344;7.022;2023-10-19T15:52:43;16.50;99.90
16655;DHT22;8441;51.344;7.022;2023-10-19T15:55:10;16.50;99.90
16655;DHT22;8441;51.344;7.022;2023-10-19T15:57:38;16.50;99.90
16655;DHT22;8441;51.344;7.022;2023-10-19T16:00:07;16.50;99.90